CDT,Max TemperatureF,Mean TemperatureF,Min TemperatureF,Max Dew PointF,MeanDew PointF,Min DewpointF,Max Humidity, Mean Humidity, Min Humidity, Max Sea Level PressureIn, Mean Sea Level PressureIn, Min Sea Level PressureIn, Max VisibilityMiles, Mean VisibilityMiles, Min VisibilityMiles, Max Wind SpeedMPH, Mean Wind SpeedMPH, Max Gust SpeedMPH,PrecipitationIn, CloudCover, Events, WindDirDegrees
2012-10-1,80,70,60,59,53,46,88,59,30,29.87,29.82,29.79,10,10,10,23,11,28,0.00,0,,331
2012-10-2,73,68,62,54,53,48,72,59,41,29.98,29.93,29.86,10,10,10,16,10,17,0.00,0,Rain,330
2012-10-3,80,70,59,55,52,46,82,56,30,30.07,30.01,29.97,10,10,10,12,5,18,0.00,0,,174
2012-10-4,86,74,62,61,56,52,88,58,33,30.19,30.12,30.07,10,10,10,14,7,18,0.00,1,,151
2012-10-5,84,70,57,68,61,50,83,69,51,30.13,30.08,30.01,10,10,10,20,10,23,0.00,5,,223
2012-10-6,57,52,46,52,42,36,94,68,51,30.28,30.18,30.12,10,10,3,15,11,21,0.00,8,Rain,36
2012-10-7,53,50,46,43,38,34,76,64,47,30.33,30.27,30.20,10,10,10,13,7,16,0.00,6,Rain,26
2012-10-8,64,52,41,43,39,34,87,61,34,30.29,30.21,30.12,10,10,7,9,3,,0.00,1,,166
2012-10-9,73,60,48,61,52,43,94,74,60,30.12,30.03,29.92,10,10,10,18,8,22,0.00,5,,151
2012-10-10,69,66,62,63,58,55,94,77,60,30.20,30.13,30.03,10,9,3,14,6,20,0.00,7,,86
2012-10-11,82,72,62,68,63,57,88,74,58,30.20,30.15,30.10,10,10,7,12,6,18,0.00,5,,144
2012-10-12,82,73,64,70,65,61,100,77,54,30.23,30.17,30.13,10,8,1,13,5,,0.00,2,,167
2012-10-13,86,78,69,68,63,61,88,66,43,30.12,30.02,29.87,10,10,10,23,11,31,0.00,4,Thunderstorm,181
2012-10-14,78,70,60,66,57,50,94,65,36,30.11,30.02,29.89,10,10,2,29,12,37,0.91,1,Rain-Thunderstorm,281
2012-10-15,80,66,53,54,46,32,88,53,17,30.13,30.07,30.01,10,10,10,9,2,,0.00,0,,195
2012-10-16,71,63,55,59,52,46,88,66,50,30.02,29.87,29.74,10,10,10,15,7,22,0.00,1,,181
2012-10-17,86,73,60,64,59,48,94,67,29,29.81,29.67,29.55,10,10,7,28,14,36,0.00,4,,234
2012-10-18,73,63,53,50,35,27,67,37,19,30.02,29.95,29.81,10,10,10,21,9,24,0.00,0,,329
2012-10-19,75,63,51,37,31,23,54,34,16,30.03,29.96,29.90,10,10,10,20,8,23,0.00,0,,278
2012-10-20,82,66,51,61,50,36,64,52,36,29.94,29.87,29.79,10,10,10,20,8,25,0.00,1,,191
2012-10-21,86,78,71,68,65,59,83,67,48,29.94,29.90,29.83,10,10,10,20,11,26,0.00,4,,175
2012-10-22,82,76,71,68,66,63,83,71,58,30.04,29.98,29.93,10,10,10,16,11,23,0.00,3,,172
2012-10-23,82,75,68,64,63,61,88,68,51,30.02,29.98,29.94,10,10,10,16,10,22,0.00,3,,177
2012-10-24,82,75,68,64,62,61,88,68,48,30.05,29.96,29.89,10,10,5,17,9,28,0.00,2,,173
2012-10-25,80,66,50,68,60,45,94,76,54,30.09,29.94,29.86,10,9,2,22,12,28,0.20,5,Rain,221
2012-10-26,53,50,44,45,40,34,82,66,54,30.32,30.22,30.09,10,10,7,21,15,26,0.01,6,Rain-Thunderstorm,1
2012-10-27,57,47,37,34,32,28,81,58,33,30.35,30.26,30.17,10,10,10,14,10,18,0.00,0,,359
2012-10-28,60,50,41,36,30,21,76,52,22,30.32,30.26,30.21,10,10,10,15,6,10,0.00,0,,359
2012-10-29,64,50,35,36,31,25,81,54,24,30.35,30.26,30.16,10,10,5,7,1,,0.00,0,,78
2012-10-30,73,57,41,43,37,34,81,51,27,30.16,30.06,29.97,10,10,10,13,4,17,0.00,0,,211
2012-10-31,78,66,53,54,45,41,77,56,26,30.04,30.00,29.96,10,10,1,9,6,,0.00,0,,267